Latest Weather Observations for Mount Wellington

IDT60801

Issued at 3:35 am EST Saturday 20 September 2014 (issued every 30 minutes, with the page automatically refreshed every 10 minutes)

About weather observations | Map of weather stations | Latest weather observations for TAS | Other Formats
Station Details ID: 094087 Name: MOUNT WELLINGTON Lat: -42.90 Lon: 147.24 Height: 1260.47 m
Data from the previous 72 hours. | See also: Recent months at Mount Wellington
Date/Time
EST
Temp
°C
App
Temp
°C
Dew
Point
Rel
Hum
%
Delta-T
°C
Wind Press
QNH
hPa
Press
MSL
hPa
Rain
since 9 am
mm
Dir
 
Spd
km/h
Gust
km/h
Spd
kts
Gust
kts
20/03:30am 1.3 -10.4 1.0 98 0.1 SW 52 61 28 33 - - 3.6
20/03:20am 1.3 -10.4 1.0 98 0.1 SW 52 70 28 38 - - 3.6
20/03:00am 1.5 -11.5 1.2 98 0.1 SW 59 72 32 39 - - 3.6
20/02:30am 1.6 -11.0 1.3 98 0.1 SW 57 69 31 37 - - 3.6
20/02:00am 1.5 -12.3 1.2 98 0.1 SW 63 76 34 41 - - 3.4
20/01:30am 1.5 -12.7 1.2 98 0.1 SW 65 82 35 44 - - 3.4
20/01:14am 1.2 -12.6 0.9 98 0.1 SW 63 85 34 46 - - 3.4
20/01:00am 1.1 -12.0 0.8 98 0.1 SW 59 74 32 40 - - 3.4
20/12:43am 1.2 -10.5 0.9 98 0.1 SW 52 70 28 38 - - 3.4
20/12:30am 1.1 -11.6 0.8 98 0.1 SW 57 74 31 40 - - 3.4
20/12:00am 1.3 -12.5 1.0 98 0.1 SW 63 76 34 41 - - 3.4
 
Date/Time
EST
Temp
°C
App
Temp
°C
Dew
Point
Rel
Hum
%
Delta-T
°C
Wind Press
QNH
hPa
Press
MSL
hPa
Rain
since 9 am
mm
Dir
 
Spd
km/h
Gust
km/h
Spd
kts
Gust
kts
19/11:30pm 1.1 -10.3 0.8 98 0.1 SW 50 67 27 36 - - 3.2
19/11:02pm 1.5 -10.9 1.2 98 0.1 SW 56 74 30 40 - - 2.6
19/11:00pm 1.5 -11.1 1.2 98 0.1 SW 57 74 31 40 - - 2.4
19/10:30pm 1.3 -12.1 1.0 98 0.1 SW 61 80 33 43 - - 2.2
19/10:12pm 1.2 -12.2 0.9 98 0.1 SW 61 80 33 43 - - 1.8
19/10:00pm 1.6 -11.8 1.3 98 0.1 SW 61 76 33 41 - - 1.8
19/09:41pm 1.6 -11.8 1.3 98 0.1 SW 61 82 33 44 - - 1.8
19/09:30pm 1.5 -11.9 1.2 98 0.1 SW 61 78 33 42 - - 1.8
19/09:00pm 1.6 -10.8 1.3 98 0.1 SW 56 72 30 39 - - 1.6
19/08:35pm 1.6 -10.8 1.3 98 0.1 SW 56 78 30 42 - - 1.6
19/08:30pm 1.6 -10.8 1.3 98 0.1 WSW 56 70 30 38 - - 1.6
19/08:06pm 1.8 -8.3 1.5 98 0.1 WSW 44 70 24 38 - - 1.6
19/08:00pm 1.8 -9.1 1.5 98 0.1 WSW 48 63 26 34 - - 1.4
19/07:30pm 1.6 -8.9 1.3 98 0.1 WSW 46 69 25 37 - - 0.8
19/07:21pm 1.8 -8.3 1.5 98 0.1 WSW 44 65 24 35 - - 0.2
19/07:00pm 1.8 -9.5 1.5 98 0.1 WSW 50 67 27 36 - - 0.2
19/06:30pm 1.7 -10.7 1.4 98 0.1 WSW 56 74 30 40 - - 0.2
19/06:01pm 1.6 -11.4 1.3 98 0.1 WSW 59 80 32 43 - - 0.2
19/06:00pm 1.5 -11.1 1.2 98 0.1 WSW 57 72 31 39 - - 0.2
19/05:35pm 1.5 -10.2 1.2 98 0.1 WSW 52 72 28 39 - - 0.2
19/05:30pm 1.5 -9.8 1.1 97 0.2 WSW 50 63 27 34 - - 0.2
19/05:00pm 1.4 -12.0 1.0 97 0.2 WSW 61 78 33 42 - - 0.2
19/04:41pm 1.6 -11.9 0.6 93 0.4 WSW 61 80 33 43 - - 0.2
19/04:30pm 1.8 -12.5 0.3 90 0.6 WSW 65 80 35 43 - - 0.2
19/04:00pm 2.8 -11.9 0.2 83 1.1 WSW 67 82 36 44 - - 0.2
19/03:30pm 2.6 -12.5 -0.2 82 1.1 WSW 69 91 37 49 - - 0.2
19/03:21pm 2.6 -11.4 0.0 83 1.1 WSW 63 89 34 48 - - 0.2
19/03:00pm 3.2 -10.7 0.3 81 1.2 WSW 63 82 34 44 - - 0.2
19/02:30pm 3.3 -11.4 0.0 79 1.3 WSW 67 82 36 44 - - 0.2
19/02:13pm 3.1 -12.6 -0.5 77 1.4 WSW 72 93 39 50 - - 0.2
19/02:00pm 3.1 -12.1 0.5 83 1.1 WSW 70 87 38 47 - - 0.2
19/01:31pm 2.8 -13.6 0.2 83 1.1 WSW 76 95 41 51 - - 0.2
19/01:30pm 2.8 -13.9 0.5 85 0.9 WSW 78 95 42 51 - - 0.2
19/01:04pm 2.1 -12.9 0.8 91 0.5 WSW 69 87 37 47 - - 0.2
19/01:00pm 2.6 -12.2 1.6 93 0.4 WSW 69 85 37 46 - - 0.2
19/12:42pm 1.6 -14.1 0.0 89 0.6 WSW 72 93 39 50 - - 0.2
19/12:30pm 2.5 -13.4 0.7 88 0.7 WSW 74 89 40 48 - - 0.2
19/12:00pm 1.8 -14.2 0.5 91 0.5 WSW 74 98 40 53 - - 0.2
19/11:38am 1.7 -13.4 1.1 96 0.2 WSW 70 91 38 49 - - 0.2
19/11:30am 1.3 -14.2 0.9 97 0.2 WSW 72 87 39 47 - - 0.2
19/11:08am 1.4 -12.4 1.1 98 0.1 WSW 63 83 34 45 - - 0.2
19/11:00am 1.9 -11.0 1.6 98 0.1 WSW 59 76 32 41 - - 0.2
19/10:30am 1.8 -10.6 1.5 98 0.1 WSW 56 70 30 38 - - 0.2
19/10:00am 2.0 -10.0 1.7 98 0.1 WSW 54 69 29 37 - - 0.0
19/09:44am 1.7 -10.7 1.4 98 0.1 WSW 56 74 30 40 - - 0.0
19/09:30am 1.6 -11.0 1.3 98 0.1 WSW 57 76 31 41 - - 0.0
19/09:00am 1.3 -12.9 1.0 98 0.1 WSW 65 87 35 47 - - 2.6
19/08:30am 1.1 -13.1 0.8 98 0.1 WSW 65 85 35 46 - - 2.6
19/08:05am 1.0 -13.2 0.7 98 0.1 WSW 65 85 35 46 - - 2.6
19/08:00am 1.0 -14.0 0.7 98 0.1 WSW 69 85 37 46 - - 2.6
19/07:30am 0.8 -13.5 0.5 98 0.1 WSW 65 85 35 46 - - 2.6
19/07:00am 0.8 -13.8 0.5 98 0.1 WSW 67 87 36 47 - - 2.6
19/06:30am 0.8 -14.4 0.5 98 0.1 WSW 70 95 38 51 - - 2.4
19/06:00am 0.7 -13.6 0.4 98 0.1 WSW 65 83 35 45 - - 2.4
19/05:30am 0.8 -12.7 0.5 98 0.1 WSW 61 82 33 44 - - 2.4
19/05:00am 0.7 -12.1 0.4 98 0.1 WSW 57 80 31 43 - - 2.2
19/04:33am 0.6 -12.9 0.3 98 0.1 WSW 61 80 33 43 - - 2.2
19/04:30am 0.5 -12.7 0.2 98 0.1 WSW 59 78 32 42 - - 2.2
19/04:00am 0.5 -14.2 0.2 98 0.1 WSW 67 89 36 48 - - 2.0
19/03:30am 0.3 -15.4 0.0 98 0.1 WSW 72 95 39 51 - - 2.0
19/03:00am 0.3 -16.1 0.0 98 0.1 WSW 76 104 41 56 - - 1.8
19/02:30am 0.1 -16.4 -0.2 98 0.1 WSW 76 102 41 55 - - 1.8
19/02:00am 0.1 -15.6 -0.2 98 0.1 WSW 72 93 39 50 - - 1.8
19/01:56am 0.2 -14.5 -0.1 98 0.1 WSW 67 89 36 48 - - 1.8
19/01:55am 0.2 -7.1 -0.1 98 0.1 SW 28 89 15 48 - - 1.8
19/01:30am 0.0 -2.0 -0.3 98 0.1 CALM 0 0 0 0 - - 1.8
19/01:00am 0.0 -2.0 -0.3 98 0.1 CALM 0 0 0 0 - - 1.8
19/12:30am 0.0 -2.0 -0.3 98 0.1 CALM 0 0 0 0 - - 1.6
19/12:00am 0.0 -2.0 -0.3 98 0.1 CALM 0 0 0 0 - - 1.6
 
Date/Time
EST
Temp
°C
App
Temp
°C
Dew
Point
Rel
Hum
%
Delta-T
°C
Wind Press
QNH
hPa
Press
MSL
hPa
Rain
since 9 am
mm
Dir
 
Spd
km/h
Gust
km/h
Spd
kts
Gust
kts
18/11:30pm -0.2 -2.3 -0.5 98 0.1 CALM 0 0 0 0 - - 1.6
18/11:00pm -0.3 -2.4 -0.6 98 0.1 CALM 0 0 0 0 - - 1.6
18/10:30pm -0.6 -2.7 -0.9 98 0.1 CALM 0 0 0 0 - - 1.6
18/10:00pm -0.7 -2.8 -1.0 98 0.1 CALM 0 0 0 0 - - 1.6
18/09:30pm -0.8 -2.9 -1.1 98 0.1 CALM 0 0 0 0 - - 1.6
18/09:00pm -0.7 -2.8 -1.0 98 0.1 CALM 0 0 0 0 - - 1.6
18/08:30pm -0.8 -3.0 -1.2 97 0.1 CALM 0 0 0 0 - - 1.6
18/08:00pm -1.0 -3.2 -1.4 97 0.1 CALM 0 0 0 0 - - 1.6
18/07:30pm -0.9 -3.1 -1.2 98 0.1 CALM 0 0 0 0 - - 1.6
18/07:00pm -0.7 -2.8 -1.0 98 0.1 CALM 0 0 0 0 - - 1.6
18/06:30pm -0.7 -2.8 -1.0 98 0.1 CALM 0 0 0 0 - - 1.4
18/06:00pm -0.6 -2.7 -0.9 98 0.1 CALM 0 0 0 0 - - 1.4
18/05:30pm -0.4 -2.5 -0.7 98 0.1 CALM 0 0 0 0 - - 1.2
18/05:00pm -0.3 -2.4 -0.6 98 0.1 CALM 0 0 0 0 - - 1.2
18/04:30pm -0.3 -2.4 -0.6 98 0.1 CALM 0 0 0 0 - - 1.0
18/04:00pm -0.3 -2.4 -0.6 98 0.1 CALM 0 0 0 0 - - 1.0
18/03:30pm -0.5 -2.6 -0.8 98 0.1 CALM 0 0 0 0 - - 1.0
18/03:00pm -0.6 -2.7 -1.0 97 0.1 CALM 0 0 0 0 - - 1.0
18/02:30pm -0.8 -3.0 -1.2 97 0.1 CALM 0 0 0 0 - - 0.8
18/02:00pm -0.9 -3.1 -1.3 97 0.1 CALM 0 0 0 0 - - 0.4
18/01:30pm -0.7 -2.8 -1.1 97 0.1 CALM 0 0 0 0 - - 0.0
18/01:00pm -0.7 -2.8 -1.1 97 0.1 CALM 0 0 0 0 - - 0.0
18/12:30pm -0.7 -2.8 -1.1 97 0.1 CALM 0 0 0 0 - - 0.0
18/12:00pm -0.3 -2.4 -0.7 97 0.1 CALM 0 0 0 0 - - 0.0
18/11:30am -0.8 -3.0 -1.2 97 0.1 CALM 0 0 0 0 - - 0.0
18/11:00am -1.1 -3.3 -1.5 97 0.1 CALM 0 0 0 0 - - 0.0
18/10:30am -1.1 -3.3 -1.5 97 0.1 CALM 0 0 0 0 - - 0.0
18/10:00am -1.5 -3.7 -1.9 97 0.1 CALM 0 0 0 0 - - 0.0
18/09:30am -1.7 -4.0 -2.3 96 0.1 CALM 0 0 0 0 - - 0.0
18/09:00am -1.5 -3.7 -1.9 97 0.1 CALM 0 0 0 0 - - 3.6
18/08:30am -1.3 -3.5 -1.7 97 0.1 CALM 0 0 0 0 - - 3.0
18/08:00am -1.7 -4.0 -2.1 97 0.1 CALM 0 0 0 0 - - 2.6
18/07:30am -1.7 -4.0 -2.1 97 0.1 CALM 0 0 0 0 - - 2.4
18/07:00am -1.7 -4.0 -2.3 96 0.1 CALM 0 0 0 0 - - 2.4
18/06:30am -1.9 -4.2 -2.5 96 0.1 CALM 0 0 0 0 - - 2.2
18/06:00am -2.0 -4.3 -2.6 96 0.1 CALM 0 0 0 0 - - 2.2
18/05:30am -2.0 -4.3 -2.6 96 0.1 CALM 0 0 0 0 - - 2.2
18/05:00am -2.0 -4.3 -2.6 96 0.1 CALM 0 0 0 0 - - 2.2
18/04:30am -2.1 -4.4 -2.6 96 0.1 CALM 0 0 0 0 - - 2.2
18/04:00am -2.1 -4.4 -2.6 96 0.1 CALM 0 0 0 0 - - 2.2
18/03:30am -1.9 -4.2 -2.5 96 0.1 CALM 0 0 0 0 - - 2.2
18/03:00am -1.9 -8.0 -2.5 96 0.1 SW 20 28 11 15 - - 2.2
18/02:30am -1.8 -10.2 -2.4 96 0.1 SW 32 41 17 22 - - 2.0
18/02:00am -1.8 -10.4 -2.2 97 0.1 SW 33 43 18 23 - - 2.0
18/01:30am -1.8 -9.4 -2.4 96 0.1 SW 28 35 15 19 - - 2.0
18/01:00am -1.9 -11.3 -2.5 96 0.1 SW 37 43 20 23 - - 2.0
18/12:30am -2.0 -12.5 -2.6 96 0.1 SW 43 48 23 26 - - 2.0
18/12:00am -1.6 -12.6 -2.0 97 0.1 SW 46 56 25 30 - - 2.0
 
Date/Time
EST
Temp
°C
App
Temp
°C
Dew
Point
Rel
Hum
%
Delta-T
°C
Wind Press
QNH
hPa
Press
MSL
hPa
Rain
since 9 am
mm
Dir
 
Spd
km/h
Gust
km/h
Spd
kts
Gust
kts
17/11:30pm -1.8 -12.5 -2.4 96 0.1 SW 44 56 24 30 - - 2.0
17/11:00pm -2.4 -13.1 -2.9 96 0.1 SW 44 52 24 28 - - 2.0
17/10:30pm -2.6 -13.7 -3.1 96 0.1 SW 46 54 25 29 - - 2.0
17/10:00pm -2.6 -15.3 -3.1 96 0.1 SW 54 61 29 33 - - 2.0
17/09:30pm -2.9 -15.2 -3.4 96 0.0 SW 52 63 28 34 - - 2.0
17/09:00pm -3.1 -16.8 -3.8 95 0.1 WSW 59 69 32 37 - - 2.0
17/08:30pm -3.4 -16.7 -4.1 95 0.1 WSW 57 69 31 37 - - 2.0
17/08:00pm -3.6 -16.4 -4.3 95 0.1 WSW 54 65 29 35 - - 2.0
17/07:30pm -3.1 -13.0 -3.8 95 0.1 WSW 39 48 21 26 - - 2.0
17/07:01pm -2.9 -11.6 -3.4 96 0.0 WSW 33 54 18 29 - - 2.0
17/07:00pm -2.9 -11.6 -3.4 96 0.0 WSW 33 43 18 23 - - 2.0
17/06:30pm -2.9 -12.4 -3.4 96 0.0 SW 37 52 20 28 - - 2.0
17/06:00pm -2.6 -13.2 -3.1 96 0.1 WSW 43 56 23 30 - - 2.0
17/05:30pm -2.5 -15.1 -3.0 96 0.1 SW 54 63 29 34 - - 2.0
17/05:00pm -2.8 -16.8 -3.5 95 0.1 SW 61 74 33 40 - - 2.0
17/04:42pm -2.7 -16.7 -3.2 96 0.1 SW 61 82 33 44 - - 2.0
17/04:30pm -2.5 -16.9 -3.0 96 0.1 SW 63 76 34 41 - - 2.0
17/04:00pm -2.6 -16.6 -3.1 96 0.1 SW 61 78 33 42 - - 2.0
17/03:30pm -1.6 -14.5 -2.0 97 0.1 SW 56 70 30 38 - - 2.0
17/03:00pm -1.5 -16.1 -2.1 96 0.1 SW 65 80 35 43 - - 2.0
17/02:30pm -1.6 -16.6 -2.2 96 0.1 SW 67 82 36 44 - - 2.0
17/02:00pm -1.8 -16.5 -2.4 96 0.1 SW 65 78 35 42 - - 1.8
17/01:50pm -2.0 -15.5 -2.6 96 0.1 WSW 59 80 32 43 - - 1.8
17/01:30pm -2.0 -16.3 -2.6 96 0.1 SW 63 78 34 42 - - 1.8
17/01:00pm -2.2 -16.9 -2.7 96 0.1 WSW 65 76 35 41 - - 1.8
17/12:30pm -2.2 -17.3 -2.7 96 0.1 WSW 67 80 36 43 - - 1.8
17/12:00pm -2.0 -15.9 -2.6 96 0.1 WSW 61 70 33 38 - - 1.8
17/11:30am -1.9 -16.6 -2.5 96 0.1 WSW 65 74 35 40 - - 1.6
17/11:29am -1.9 -16.6 -2.5 96 0.1 WSW 65 74 35 40 - - 1.6
17/11:24am -1.2 -12.1 -1.6 97 0.1 WSW 46 69 25 37 - - 1.6
17/11:21am -0.9 -11.2 -1.3 97 0.1 WSW 43 50 23 27 - - 1.6
17/11:00am -0.3 -6.6 -0.7 97 0.1 WSW 22 28 12 15 - - 1.2
17/10:30am -0.2 -4.8 -0.9 95 0.3 WNW 13 19 7 10 - - 0.8
17/10:00am 1.3 -3.6 -0.3 89 0.6 WSW 15 22 8 12 - - 0.0
17/09:30am 1.7 -3.2 -0.4 86 0.8 W 15 22 8 12 - - 0.0
17/09:00am 1.5 -4.7 -0.6 86 0.8 W 22 28 12 15 - - 0.0
17/08:30am 1.5 -4.7 -0.1 89 0.6 W 22 26 12 14 - - 0.0
17/08:00am 0.5 -6.9 -0.8 91 0.5 W 28 37 15 20 - - 0.0
17/07:30am 0.9 -5.7 -0.5 90 0.5 W 24 35 13 19 - - 0.0
17/07:00am 0.6 -7.1 -0.1 95 0.3 W 30 44 16 24 - - 0.0
17/06:30am 1.0 -6.1 -1.1 86 0.8 WNW 26 33 14 18 - - 0.0
17/06:00am 0.3 -7.8 -0.1 97 0.2 WNW 32 39 17 21 - - 0.0
17/05:30am 0.3 -6.7 -0.3 96 0.2 W 26 35 14 19 - - 0.0
17/05:00am 0.3 -7.1 -0.4 95 0.3 W 28 35 15 19 - - 0.0
17/04:30am 0.1 -8.0 -0.3 97 0.2 W 32 39 17 21 - - 0.0
17/04:00am 0.3 -5.9 -0.1 97 0.2 W 22 28 12 15 - - 0.0

Other Formats:

Comma delimited format used in spreadsheet applications
http://www.bom.gov.au/fwo/IDT60801/IDT60801.95979.axf

JavaScript Object Notation format (JSON) in row-major order
http://www.bom.gov.au/fwo/IDT60801/IDT60801.95979.json